Ust'-Ilimsk, Russia
Current Conditions -  °F | °C
As of 3:30 PM on Friday 24 Oct 2014 (Local Time) from UIBB Reporting Station
Snow Showers Snow Showers  
Wind Chill:   Ceiling: 1400
Heat Index: 18°   Visibility: 4mi
Dew Point: 12°   Wind: 11mph
Humidity: 79%   Direction: 300°WNW
Pressure: 29.85"   Gusts: NA
Location:  58°N, 102.66°E
Report Text: UIBB 240730Z 30005MPS 6000 -SHSN OVC014CB M08/M11 Q1011 NOSIGRMK QFE715/0954 30890537
Loading
Personal Weather Stations






























Interactive Weather Map
Tropical Storm Tracking
New forecast layout! Learn more

10-Day Weather Forecast

Advertisements
Track Severe Weather on mobile